createdAt,value
2018-06-01T04:27:23.663Z,6.40
2018-06-01T04:29:51.314Z,7.93
2018-06-01T04:32:18.818Z,9.93
2018-06-01T04:34:46.319Z,9.67
2018-06-01T04:37:13.822Z,9.57
2018-06-01T04:39:41.359Z,8.57
2018-06-01T04:42:08.929Z,13.43
2018-06-01T04:44:36.452Z,7.17
2018-06-01T04:47:03.962Z,12.03
2018-06-01T04:49:31.442Z,7.73
2018-06-01T04:51:58.932Z,8.63
2018-06-01T04:54:26.478Z,10.60
2018-06-01T04:56:54.041Z,10.30
2018-06-01T04:59:21.547Z,8.67
2018-06-01T05:01:49.052Z,7.03
2018-06-01T05:04:16.556Z,7.97
2018-06-01T05:06:44.085Z,10.53
2018-06-01T05:09:11.615Z,8.73
2018-06-01T05:11:39.161Z,6.20
2018-06-01T05:14:06.663Z,6.97
2018-06-01T05:16:34.214Z,6.50
2018-06-01T05:19:01.691Z,9.93
2018-06-01T05:21:29.195Z,9.30
2018-06-01T05:23:56.700Z,12.17
2018-06-01T05:26:24.243Z,10.90
2018-06-01T05:28:51.756Z,12.57
2018-06-01T05:31:19.266Z,11.40
2018-06-01T05:33:46.767Z,7.97
2018-06-01T05:36:14.267Z,9.43
2018-06-01T05:38:41.781Z,10.93
2018-06-01T05:41:09.283Z,12.67
2018-06-01T05:43:36.775Z,22.73
2018-06-01T05:46:04.399Z,14.30
2018-06-01T05:48:31.909Z,8.57
2018-06-01T05:50:59.695Z,10.60
2018-06-01T05:53:27.185Z,9.50
2018-06-01T05:55:54.683Z,10.63
2018-06-01T05:58:22.188Z,12.97
2018-06-01T06:00:49.698Z,16.93
2018-06-01T06:03:17.193Z,15.03
2018-06-01T06:05:44.708Z,9.60
2018-06-01T06:08:12.384Z,10.77
2018-06-01T06:10:39.893Z,9.77
2018-06-01T06:13:07.404Z,8.73
2018-06-01T06:15:34.927Z,10.17
2018-06-01T06:18:02.433Z,11.17
2018-06-01T06:20:30.004Z,12.07
2018-06-01T06:22:57.554Z,11.33
2018-06-01T06:25:25.051Z,9.03
2018-06-01T06:27:52.547Z,14.60
2018-06-01T06:30:20.051Z,11.93
2018-06-01T06:32:47.552Z,13.60
2018-06-01T06:35:15.056Z,10.80
2018-06-01T06:37:42.555Z,8.17
2018-06-01T06:40:10.059Z,9.67
2018-06-01T06:42:37.600Z,6.97
2018-06-01T06:45:05.104Z,11.27
2018-06-01T06:47:32.595Z,10.60
2018-06-01T06:50:00.125Z,13.87
2018-06-01T06:52:27.631Z,15.40
2018-06-01T06:54:55.130Z,11.80
2018-06-01T06:57:22.641Z,11.33
2018-06-01T06:59:50.166Z,15.10
2018-06-01T07:02:17.679Z,13.80
2018-06-01T07:04:45.192Z,14.90
2018-06-01T07:07:12.688Z,15.37
2018-06-01T07:09:40.200Z,20.43
2018-06-01T07:12:07.725Z,12.03
2018-06-01T07:14:35.228Z,14.60
2018-06-01T07:17:02.732Z,14.33
2018-06-01T07:19:30.238Z,18.60
2018-06-01T07:21:57.737Z,16.00
2018-06-01T07:24:25.234Z,13.90
2018-06-01T07:26:52.767Z,19.23
2018-06-01T07:29:20.268Z,18.13
2018-06-01T07:31:47.781Z,11.10
2018-06-01T07:34:15.286Z,15.67
2018-06-01T07:36:42.819Z,10.97
2018-06-01T07:39:10.351Z,13.47
2018-06-01T07:41:37.873Z,21.93
2018-06-01T07:44:05.366Z,22.30
2018-06-01T07:46:32.871Z,11.80
2018-06-01T07:49:00.381Z,11.20
2018-06-01T07:51:27.886Z,13.70
2018-06-01T07:53:55.388Z,18.70
2018-06-01T07:56:22.904Z,13.27
2018-06-01T07:58:50.409Z,20.23
2018-06-01T08:01:17.950Z,13.70
2018-06-01T08:03:45.458Z,11.67
2018-06-01T08:06:12.998Z,12.17
2018-06-01T08:08:40.530Z,10.50
2018-06-01T08:11:08.022Z,11.97
2018-06-01T08:13:35.566Z,17.43
2018-06-01T08:16:03.058Z,7.57
2018-06-01T08:18:30.573Z,11.20
2018-06-01T08:20:58.088Z,14.97
2018-06-01T08:23:25.612Z,9.33
2018-06-01T08:25:53.115Z,10.53
2018-06-01T08:28:20.625Z,11.47
2018-06-01T08:30:48.157Z,9.67
2018-06-01T08:33:15.765Z,11.67
2018-06-01T08:35:43.315Z,11.13
2018-06-01T08:38:10.820Z,17.77
2018-06-01T08:40:38.330Z,12.73
2018-06-01T08:43:05.847Z,10.97
2018-06-01T08:45:33.350Z,7.17
2018-06-01T08:48:00.885Z,6.00
2018-06-01T08:50:28.383Z,6.80
2018-06-01T08:52:55.888Z,10.40
2018-06-01T08:55:23.387Z,8.10
2018-06-01T08:57:50.880Z,7.40
2018-06-01T09:00:18.416Z,5.43
2018-06-01T09:02:45.944Z,7.13
2018-06-01T09:05:13.610Z,5.07
2018-06-01T09:07:41.158Z,4.43
2018-06-01T09:10:08.729Z,4.18
2018-06-01T09:12:36.243Z,5.75
2018-06-01T09:15:03.737Z,4.13
2018-06-01T09:17:31.233Z,9.07
2018-06-01T09:19:58.779Z,4.05
2018-06-01T09:22:26.322Z,5.97
2018-06-01T09:24:53.864Z,5.60
2018-06-01T09:27:21.383Z,8.90
2018-06-01T09:29:48.888Z,4.03
2018-06-01T09:32:16.393Z,7.62
2018-06-01T09:34:43.977Z,7.40
2018-06-01T09:37:11.476Z,4.45
2018-06-01T09:39:39.015Z,4.43
2018-06-01T09:42:06.519Z,11.63
2018-06-01T09:44:34.056Z,5.12
2018-06-01T09:47:01.584Z,5.90
2018-06-01T09:49:29.110Z,9.00
2018-06-01T09:51:56.642Z,6.57
2018-06-01T09:54:24.179Z,9.18
2018-06-01T09:56:51.696Z,4.47
2018-06-01T09:59:19.198Z,6.30
2018-06-01T10:01:46.696Z,5.65
2018-06-01T10:04:14.186Z,5.68
2018-06-01T10:06:41.684Z,5.45
2018-06-01T10:09:09.553Z,6.87
2018-06-01T10:11:37.784Z,3.62
2018-06-01T10:14:09.050Z,5.12
2018-06-01T10:16:38.520Z,7.15
2018-06-01T10:19:06.520Z,9.60
2018-06-01T10:21:34.028Z,2.75
2018-06-01T10:24:01.553Z,7.37
2018-06-01T10:26:29.111Z,4.50
2018-06-01T10:28:56.618Z,4.47
2018-06-01T10:31:24.119Z,5.05
2018-06-01T10:33:51.609Z,3.33
2018-06-01T10:36:19.156Z,5.78
2018-06-01T10:38:46.652Z,5.45
2018-06-01T10:41:14.153Z,5.72
2018-06-01T10:43:41.711Z,5.07
2018-06-01T10:46:09.228Z,6.93
2018-06-01T10:48:36.741Z,5.18
2018-06-01T10:51:04.264Z,6.70
2018-06-01T10:53:31.758Z,4.97
2018-06-01T10:55:59.363Z,4.50
2018-06-01T10:58:26.860Z,6.22
2018-06-01T11:00:54.422Z,7.30
2018-06-01T11:03:21.915Z,5.25
2018-06-01T11:05:49.431Z,4.70
2018-06-01T11:08:16.934Z,5.85
2018-06-01T11:10:44.496Z,6.32
2018-06-01T11:13:12.012Z,9.15
2018-06-01T11:15:39.514Z,5.45
2018-06-01T11:18:07.017Z,5.60
2018-06-01T11:20:34.516Z,5.57
2018-06-01T11:23:02.015Z,3.80
2018-06-01T11:25:29.542Z,4.30
2018-06-01T11:27:57.048Z,5.43
2018-06-01T11:30:24.595Z,2.70
2018-06-01T11:32:52.095Z,3.87
2018-06-01T11:35:19.612Z,5.35
2018-06-01T11:37:47.107Z,3.55
2018-06-01T11:40:14.600Z,6.12
2018-06-01T11:42:42.108Z,6.47
2018-06-01T11:45:09.639Z,4.82
2018-06-01T11:47:37.175Z,4.45
2018-06-01T11:50:04.743Z,6.22
2018-06-01T11:52:32.253Z,4.30
2018-06-01T11:54:59.789Z,4.90
2018-06-01T11:57:27.402Z,5.60
2018-06-01T11:59:54.902Z,4.50
2018-06-01T12:02:22.418Z,4.95
2018-06-01T12:04:49.914Z,5.03
2018-06-01T12:07:17.406Z,4.30
2018-06-01T12:09:44.924Z,5.53
2018-06-01T12:12:12.470Z,7.28
2018-06-01T12:14:40.017Z,5.30
2018-06-01T12:17:07.523Z,3.33
2018-06-01T12:19:35.053Z,5.78
2018-06-01T12:22:02.564Z,4.68
2018-06-01T12:24:30.068Z,6.95
2018-06-01T12:26:57.571Z,3.62
2018-06-01T12:29:25.129Z,9.27
2018-06-01T12:31:52.594Z,7.65
2018-06-01T12:34:20.136Z,3.95
2018-06-01T12:36:47.636Z,4.53
2018-06-01T12:39:15.127Z,4.78
2018-06-01T12:41:42.636Z,8.38
2018-06-01T12:44:10.188Z,4.43
2018-06-01T12:46:37.702Z,3.83
2018-06-01T12:49:05.209Z,6.97
2018-06-01T12:51:32.707Z,3.25
2018-06-01T12:54:00.203Z,3.67
2018-06-01T12:56:27.739Z,4.82
2018-06-01T12:58:55.240Z,5.20
2018-06-01T13:01:22.749Z,6.93
2018-06-01T13:03:50.240Z,4.40
2018-06-01T13:06:17.814Z,6.53
2018-06-01T13:08:45.312Z,3.65
2018-06-01T13:11:12.850Z,4.20
2018-06-01T13:13:40.350Z,7.35
2018-06-01T13:16:07.846Z,6.18
2018-06-01T13:18:35.350Z,3.55
2018-06-01T13:21:02.906Z,3.80
2018-06-01T13:23:30.407Z,5.12
2018-06-01T13:25:57.984Z,6.07
2018-06-01T13:28:25.491Z,7.40
2018-06-01T13:30:53.045Z,8.57
2018-06-01T13:33:20.557Z,7.20
2018-06-01T13:35:48.098Z,7.53
2018-06-01T13:38:15.600Z,4.70
2018-06-01T13:40:43.104Z,5.37
2018-06-01T13:43:10.626Z,4.95
2018-06-01T13:45:38.122Z,5.00
2018-06-01T13:48:05.669Z,5.62
2018-06-01T13:50:33.206Z,4.82
2018-06-01T13:53:01.455Z,3.92
2018-06-01T13:55:28.953Z,6.00
2018-06-01T13:57:56.451Z,5.22
2018-06-01T14:00:24.024Z,6.75
2018-06-01T14:02:51.528Z,5.50
2018-06-01T14:05:19.027Z,10.00
2018-06-01T14:07:47.311Z,3.60
2018-06-01T14:10:14.855Z,4.35
2018-06-01T14:12:42.350Z,12.52
2018-06-01T14:15:09.845Z,9.57
2018-06-01T14:17:37.367Z,10.93
2018-06-01T14:20:04.895Z,7.15
2018-06-01T14:22:32.454Z,7.10
2018-06-01T14:25:00.056Z,7.30
2018-06-01T14:27:27.556Z,5.97
2018-06-01T14:29:55.060Z,6.10
2018-06-01T14:32:22.559Z,4.60
2018-06-01T14:34:50.062Z,7.12
2018-06-01T14:37:17.562Z,5.22
2018-06-01T14:39:45.072Z,5.20
2018-06-01T14:42:12.580Z,7.80
2018-06-01T14:44:40.076Z,5.00
2018-06-01T14:47:07.675Z,5.43
2018-06-01T14:49:35.078Z,3.85
2018-06-01T14:52:02.647Z,5.80
2018-06-01T14:54:30.265Z,6.55
2018-06-01T14:56:57.782Z,8.40
2018-06-01T14:59:25.319Z,6.55
2018-06-01T15:01:52.864Z,4.93
2018-06-01T15:04:20.344Z,6.12
2018-06-01T15:06:47.850Z,4.78
2018-06-01T15:09:15.362Z,4.50
2018-06-01T15:11:42.959Z,5.78
2018-06-01T15:14:10.479Z,6.87
2018-06-01T15:16:38.032Z,4.00
2018-06-01T15:19:05.540Z,7.28
2018-06-01T15:21:33.033Z,8.55
2018-06-01T15:24:00.527Z,9.57
2018-06-01T15:26:28.046Z,6.72
2018-06-01T15:28:55.562Z,4.70
2018-06-01T15:31:23.090Z,5.30
2018-06-01T15:33:50.641Z,5.50
2018-06-01T15:36:18.200Z,7.93
2018-06-01T15:38:45.712Z,6.70
2018-06-01T15:41:13.268Z,6.78
2018-06-01T15:43:41.439Z,6.18
2018-06-01T15:46:08.970Z,6.45
2018-06-01T15:48:36.525Z,5.93
2018-06-01T15:51:04.044Z,4.43
2018-06-01T15:53:31.695Z,7.50
2018-06-01T15:55:59.257Z,8.93
2018-06-01T15:58:26.761Z,5.05
2018-06-01T16:00:54.309Z,7.12
2018-06-01T16:03:21.838Z,6.10
2018-06-01T16:05:49.348Z,5.97
2018-06-01T16:08:16.899Z,6.15
2018-06-01T16:10:44.377Z,6.78
2018-06-01T16:13:11.904Z,5.72
2018-06-01T16:15:39.408Z,6.90
2018-06-01T16:18:06.971Z,6.70
2018-06-01T16:20:34.509Z,7.62
2018-06-01T16:23:02.022Z,7.50
2018-06-01T16:25:29.525Z,8.98
2018-06-01T16:27:57.038Z,6.35
2018-06-01T16:30:25.313Z,11.30
2018-06-01T16:32:52.825Z,6.75
2018-06-01T16:35:20.421Z,5.80
2018-06-01T16:37:48.667Z,10.52
2018-06-01T16:40:18.799Z,7.10
2018-06-01T16:42:46.318Z,7.00
2018-06-01T16:45:13.891Z,7.95
2018-06-01T16:47:41.400Z,5.47
2018-06-01T16:50:08.910Z,11.30
2018-06-01T16:52:36.405Z,6.35
2018-06-01T16:55:03.967Z,4.47
2018-06-01T16:57:31.514Z,6.20
2018-06-01T16:59:59.066Z,6.85
2018-06-01T17:02:26.571Z,6.82
2018-06-01T17:04:54.157Z,4.05
2018-06-01T17:07:21.671Z,8.52
2018-06-01T17:09:49.176Z,10.30
2018-06-01T17:12:16.683Z,4.93
2018-06-01T17:14:44.224Z,7.57
2018-06-01T17:17:11.772Z,7.45
2018-06-01T17:19:39.328Z,8.90
2018-06-01T17:22:06.827Z,4.75
2018-06-01T17:24:34.338Z,5.87
2018-06-01T17:27:01.888Z,7.28
2018-06-01T17:29:29.501Z,6.80
2018-06-01T17:31:57.021Z,4.05
2018-06-01T17:34:24.558Z,9.52
2018-06-01T17:36:52.094Z,7.85
2018-06-01T17:39:19.591Z,6.97
2018-06-01T17:41:47.088Z,8.02
2018-06-01T17:44:14.644Z,6.82
2018-06-01T17:46:42.127Z,7.15
2018-06-01T17:49:09.636Z,10.43
2018-06-01T17:51:37.152Z,8.45
2018-06-01T17:54:04.710Z,6.03
2018-06-01T17:56:32.310Z,7.37
2018-06-01T17:58:59.877Z,11.77
2018-06-01T18:01:28.296Z,11.43
2018-06-01T18:03:55.795Z,6.03
2018-06-01T18:06:23.295Z,8.60
2018-06-01T18:08:50.830Z,8.53
2018-06-01T18:11:18.370Z,7.67
2018-06-01T18:13:45.919Z,6.67
2018-06-01T18:16:13.431Z,11.03
2018-06-01T18:18:40.935Z,7.80
2018-06-01T18:21:08.518Z,11.90
2018-06-01T18:23:36.032Z,11.07
2018-06-01T18:26:03.560Z,10.97
2018-06-01T18:28:31.054Z,13.00
2018-06-01T18:30:58.574Z,8.80
2018-06-01T18:33:26.130Z,13.63
2018-06-01T18:35:53.646Z,13.17
2018-06-01T18:38:21.155Z,11.20
2018-06-01T18:40:48.706Z,13.03
2018-06-01T18:43:16.256Z,16.93
2018-06-01T18:45:43.792Z,13.87
2018-06-01T18:48:12.135Z,11.00
2018-06-01T18:50:39.647Z,9.57
2018-06-01T18:53:07.158Z,12.63
2018-06-01T18:55:34.660Z,10.83
2018-06-01T18:58:02.203Z,12.77
2018-06-01T19:00:29.735Z,7.70
2018-06-01T19:02:57.234Z,13.50
2018-06-01T19:05:24.736Z,14.70
2018-06-01T19:07:52.398Z,16.83
2018-06-01T19:10:19.904Z,17.40
2018-06-01T19:12:47.412Z,21.33
2018-06-01T19:15:14.929Z,14.80
2018-06-01T19:17:42.431Z,25.57
2018-06-01T19:20:10.821Z,17.93
2018-06-01T19:22:38.328Z,18.40
2018-06-01T19:25:05.897Z,19.77
2018-06-01T19:27:33.436Z,19.83
2018-06-01T19:30:00.956Z,23.30
2018-06-01T19:32:28.469Z,13.73
2018-06-01T19:34:56.083Z,15.57
2018-06-01T19:37:24.548Z,16.07
2018-06-01T19:39:52.098Z,19.03
2018-06-01T19:42:19.632Z,14.87
2018-06-01T19:44:47.182Z,16.47
2018-06-01T19:47:14.732Z,10.57
2018-06-01T19:49:42.235Z,11.87
2018-06-01T19:52:09.811Z,16.73
2018-06-01T19:54:37.326Z,18.00
2018-06-01T19:57:04.855Z,13.00
2018-06-01T19:59:32.468Z,15.07
2018-06-01T20:01:59.995Z,11.90
2018-06-01T20:04:28.609Z,8.97
2018-06-01T20:06:56.516Z,13.77
2018-06-01T20:09:25.308Z,11.33
2018-06-01T20:11:54.056Z,13.23
2018-06-01T20:14:21.681Z,10.50
2018-06-01T20:16:49.221Z,10.50
2018-06-01T20:19:16.743Z,10.43
2018-06-01T20:21:46.424Z,11.70
2018-06-01T20:24:13.998Z,14.40
2018-06-01T20:26:42.627Z,10.57
2018-06-01T20:29:10.504Z,9.80
2018-06-01T20:31:38.004Z,13.60
2018-06-01T20:34:05.525Z,11.43
2018-06-01T20:36:33.032Z,10.57
2018-06-01T20:39:00.563Z,9.33
2018-06-01T20:41:28.059Z,14.97
2018-06-01T20:43:55.775Z,12.10
2018-06-01T20:46:23.314Z,10.80
2018-06-01T20:48:50.836Z,10.40
2018-06-01T20:51:18.364Z,10.00
2018-06-01T20:53:45.858Z,13.73
2018-06-01T20:56:13.492Z,10.00
2018-06-01T20:58:41.015Z,9.23
2018-06-01T21:01:08.523Z,7.43
2018-06-01T21:03:36.043Z,9.53
2018-06-01T21:06:03.609Z,6.03
2018-06-01T21:08:31.119Z,9.80
2018-06-01T21:10:58.631Z,13.40
2018-06-01T21:13:26.128Z,8.50
2018-06-01T21:15:53.645Z,8.70
2018-06-01T21:18:21.181Z,10.00
2018-06-01T21:20:48.684Z,8.17
2018-06-01T21:23:16.182Z,11.03
2018-06-01T21:25:43.703Z,13.93
2018-06-01T21:28:11.207Z,11.20
2018-06-01T21:30:38.784Z,10.83
2018-06-01T21:33:06.296Z,10.40
2018-06-01T21:35:33.836Z,13.90
2018-06-01T21:38:01.360Z,10.63
2018-06-01T21:40:28.915Z,8.03
2018-06-01T21:42:57.344Z,11.73
2018-06-01T21:45:24.867Z,12.03
2018-06-01T21:47:52.382Z,8.87
2018-06-01T21:50:19.900Z,10.57
2018-06-01T21:52:47.395Z,9.33
2018-06-01T21:55:14.967Z,9.53
2018-06-01T21:57:42.502Z,6.73
2018-06-01T22:00:10.143Z,7.30
2018-06-01T22:02:37.654Z,11.60
2018-06-01T22:05:05.991Z,7.73
2018-06-01T22:07:33.507Z,11.60
2018-06-01T22:10:01.063Z,11.73
2018-06-01T22:12:28.661Z,11.33
2018-06-01T22:14:56.176Z,14.80
2018-06-01T22:17:23.811Z,11.47
2018-06-01T22:19:51.363Z,18.00
2018-06-01T22:22:18.926Z,10.97
2018-06-01T22:24:46.454Z,12.67
2018-06-01T22:27:13.998Z,8.17
2018-06-01T22:29:41.541Z,10.00
2018-06-01T22:32:09.114Z,9.73
2018-06-01T22:34:36.657Z,7.93
2018-06-01T22:37:04.201Z,10.00
2018-06-01T22:39:31.721Z,14.73
2018-06-01T22:41:59.233Z,12.10
2018-06-01T22:44:26.800Z,13.23
2018-06-01T22:46:54.317Z,12.53
2018-06-01T22:49:21.835Z,12.07
2018-06-01T22:51:49.374Z,10.80
2018-06-01T22:54:16.904Z,9.77
2018-06-01T22:56:44.416Z,8.00
2018-06-01T22:59:11.937Z,9.97
2018-06-01T23:01:39.460Z,6.73
2018-06-01T23:04:06.966Z,7.87
2018-06-01T23:06:34.468Z,6.60
2018-06-01T23:09:01.974Z,5.93
2018-06-01T23:11:29.524Z,7.83
2018-06-01T23:13:57.036Z,7.97
2018-06-01T23:16:24.531Z,7.17
2018-06-01T23:18:52.069Z,5.67
2018-06-01T23:21:19.568Z,9.77
2018-06-01T23:23:47.120Z,9.53
2018-06-01T23:26:14.615Z,7.93
2018-06-01T23:28:42.110Z,9.17
2018-06-01T23:31:09.794Z,10.50
2018-06-01T23:33:37.328Z,9.43
2018-06-01T23:36:04.828Z,8.53
2018-06-01T23:38:32.328Z,7.53
2018-06-01T23:40:59.841Z,8.80
2018-06-01T23:43:27.352Z,10.57
2018-06-01T23:45:54.873Z,8.90
2018-06-01T23:48:22.387Z,8.17
2018-06-01T23:53:26.996Z,9.50
2018-06-01T23:55:54.510Z,9.47
2018-06-01T23:58:22.032Z,11.33
